createdAt,value
2023-03-24T00:01:24.985Z,100064.64
2023-03-24T00:03:53.114Z,100065.23
2023-03-24T00:06:23.010Z,100063.10
2023-03-24T00:08:51.097Z,100065.80
2023-03-24T00:11:21.503Z,100067.59
2023-03-24T00:13:50.739Z,100063.77
2023-03-24T00:16:20.020Z,100064.37
2023-03-24T00:18:53.210Z,100067.23
2023-03-24T00:21:27.474Z,100067.82
2023-03-24T00:23:58.367Z,100063.92
2023-03-24T00:26:26.300Z,100064.02
2023-03-24T00:28:55.753Z,100064.48
2023-03-24T00:31:24.858Z,100062.92
2023-03-24T00:33:54.845Z,100059.08
2023-03-24T00:36:25.856Z,100055.23
2023-03-24T00:38:56.473Z,100053.51
2023-03-24T00:41:26.974Z,100046.23
2023-03-24T00:43:58.779Z,100042.95
2023-03-24T00:46:29.877Z,100040.02
2023-03-24T00:49:06.911Z,100037.16
2023-03-24T00:51:38.539Z,100033.05
2023-03-24T00:54:09.354Z,100035.05
2023-03-24T00:56:40.609Z,100030.08
2023-03-24T00:59:10.611Z,100023.45
2023-03-24T01:01:41.361Z,100021.35
2023-03-24T01:04:10.554Z,100019.98
2023-03-24T01:06:40.093Z,100018.00
2023-03-24T01:09:08.895Z,100010.67
2023-03-24T01:11:41.375Z,100009.23
2023-03-24T01:14:11.836Z,100009.35
2023-03-24T01:16:40.616Z,100010.00
2023-03-24T01:19:09.530Z,100010.10
2023-03-24T01:21:39.406Z,100012.67
2023-03-24T01:24:08.423Z,100013.38
2023-03-24T01:26:36.488Z,100008.39
2023-03-24T01:29:05.080Z,100004.06
2023-03-24T01:31:33.295Z,100001.37
2023-03-24T01:34:01.436Z,100003.12
2023-03-24T01:36:29.390Z,100009.29
2023-03-24T01:39:01.162Z,100010.48
2023-03-24T01:41:41.205Z,100006.03
2023-03-24T01:44:43.192Z,99999.08
2023-03-24T01:47:11.188Z,99995.94
2023-03-24T01:49:45.758Z,99985.13
2023-03-24T01:52:22.743Z,99981.98
2023-03-24T01:54:58.332Z,99981.89
2023-03-24T01:57:35.804Z,99976.20
2023-03-24T02:00:09.401Z,99976.42
2023-03-24T02:02:55.067Z,99975.76
2023-03-24T02:05:28.465Z,99972.33
2023-03-24T02:08:10.811Z,99970.45
2023-03-24T02:10:39.157Z,99968.45
2023-03-24T02:13:08.010Z,99962.42
2023-03-24T02:15:54.266Z,99962.92
2023-03-24T02:18:37.905Z,99954.08
2023-03-24T02:21:43.744Z,99951.42
2023-03-24T02:24:43.311Z,99949.08
2023-03-24T02:27:30.208Z,99944.85
2023-03-24T02:30:40.493Z,99947.40
2023-03-24T02:33:46.090Z,99946.23
2023-03-24T02:36:50.797Z,99946.94
2023-03-24T02:39:24.649Z,99946.29
2023-03-24T02:42:14.423Z,99946.52
2023-03-24T02:44:58.651Z,99939.33
2023-03-24T02:47:41.106Z,99937.02
2023-03-24T02:50:19.463Z,99931.20
2023-03-24T02:52:56.734Z,99933.88
2023-03-24T02:55:33.905Z,99931.45
2023-03-24T02:58:07.512Z,99925.83
2023-03-24T03:00:59.464Z,99925.84
2023-03-24T03:03:49.580Z,99922.48
2023-03-24T03:06:24.454Z,99925.41
2023-03-24T03:08:55.963Z,99920.71
2023-03-24T03:11:23.891Z,99917.59
2023-03-24T03:14:01.322Z,99914.56
2023-03-24T03:16:38.710Z,99909.71
2023-03-24T03:19:18.108Z,99906.02
2023-03-24T03:21:49.672Z,99903.16
2023-03-24T03:24:27.026Z,99899.58
2023-03-24T03:27:02.452Z,99895.79
2023-03-24T03:29:38.371Z,99891.56
2023-03-24T03:32:09.856Z,99887.72
2023-03-24T03:34:44.410Z,99883.30
2023-03-24T03:37:36.678Z,99877.17
2023-03-24T03:40:12.162Z,99874.38
2023-03-24T03:42:42.155Z,99873.44
2023-03-24T03:45:11.330Z,99871.16
2023-03-24T03:47:40.498Z,99870.88
2023-03-24T03:50:10.133Z,99864.64
2023-03-24T03:52:41.679Z,99854.01
2023-03-24T03:55:12.080Z,99850.50
2023-03-24T03:57:41.436Z,99849.88
2023-03-24T04:00:16.070Z,99846.09
2023-03-24T04:03:07.432Z,99843.20
2023-03-24T04:05:38.562Z,99837.70
2023-03-24T04:08:22.266Z,99841.70
2023-03-24T04:11:36.226Z,99850.02
2023-03-24T04:14:37.698Z,99848.59
2023-03-24T04:17:42.691Z,99851.02
2023-03-24T04:20:22.383Z,99850.22
2023-03-24T04:23:05.224Z,99845.95
2023-03-24T04:25:57.018Z,99840.48
2023-03-24T04:28:48.026Z,99828.31
2023-03-24T04:31:39.229Z,99817.63
2023-03-24T04:34:28.898Z,99813.39
2023-03-24T04:37:06.026Z,99820.52
2023-03-24T04:39:47.006Z,99815.45
2023-03-24T04:42:23.730Z,99816.68
2023-03-24T04:44:52.822Z,99818.73
2023-03-24T04:47:45.310Z,99816.25
2023-03-24T04:50:38.775Z,99814.73
2023-03-24T04:53:10.704Z,99815.60
2023-03-24T04:55:50.911Z,99811.07
2023-03-24T04:58:27.445Z,99802.94
2023-03-24T05:00:56.752Z,99802.98
2023-03-24T05:03:26.393Z,99805.24
2023-03-24T05:05:54.639Z,99802.39
2023-03-24T05:08:23.131Z,99794.85
2023-03-24T05:10:51.516Z,99793.20
2023-03-24T05:13:19.577Z,99789.95
2023-03-24T05:15:53.884Z,99784.46
2023-03-24T05:18:29.785Z,99776.41
2023-03-24T05:20:58.167Z,99773.95
2023-03-24T05:23:26.545Z,99776.40
2023-03-24T05:25:55.049Z,99773.02
2023-03-24T05:28:24.289Z,99769.17
2023-03-24T05:30:53.778Z,99769.38
2023-03-24T05:33:44.834Z,99768.73
2023-03-24T05:36:16.360Z,99767.44
2023-03-24T05:38:45.830Z,99758.57
2023-03-24T05:41:13.796Z,99759.68
2023-03-24T05:43:42.818Z,99761.20
2023-03-24T05:46:12.255Z,99756.54
2023-03-24T05:48:41.346Z,99753.54
2023-03-24T05:51:13.146Z,99752.40
2023-03-24T05:53:41.406Z,99750.73
2023-03-24T05:56:33.103Z,99744.16
2023-03-24T05:59:07.808Z,99739.05
2023-03-24T06:01:56.974Z,99733.83
2023-03-24T06:04:37.165Z,99735.83
2023-03-24T06:07:11.667Z,99733.67
2023-03-24T06:09:42.667Z,99738.41
2023-03-24T06:12:13.229Z,99739.66
2023-03-24T06:14:48.499Z,99745.00
2023-03-24T06:17:16.408Z,99741.44
2023-03-24T06:19:49.947Z,99737.88
2023-03-24T06:22:38.731Z,99741.81
2023-03-24T06:25:12.336Z,99740.92
2023-03-24T06:27:48.536Z,99739.11
2023-03-24T06:30:19.362Z,99740.54
2023-03-24T06:32:47.672Z,99739.71
2023-03-24T06:35:17.914Z,99737.98
2023-03-24T06:38:15.448Z,99736.70
2023-03-24T06:40:45.094Z,99737.70
2023-03-24T06:43:13.284Z,99736.52
2023-03-24T06:45:45.736Z,99739.89
2023-03-24T06:48:19.734Z,99737.38
2023-03-24T06:50:48.297Z,99735.70
2023-03-24T06:53:17.170Z,99728.11
2023-03-24T06:55:46.252Z,99729.40
2023-03-24T06:58:15.763Z,99721.50
2023-03-24T07:00:55.394Z,99712.35
2023-03-24T07:03:48.796Z,99715.96
2023-03-24T07:06:18.577Z,99713.17
2023-03-24T07:08:50.753Z,99709.41
2023-03-24T07:11:19.629Z,99701.73
2023-03-24T07:13:55.391Z,99696.79
2023-03-24T07:16:23.739Z,99706.14
2023-03-24T07:18:59.568Z,99707.87
2023-03-24T07:21:28.381Z,99707.75
2023-03-24T07:23:56.749Z,99706.38
2023-03-24T07:26:35.275Z,99702.17
2023-03-24T07:29:11.899Z,99699.09
2023-03-24T07:31:54.535Z,99701.17
2023-03-24T07:34:22.603Z,99696.75
2023-03-24T07:36:50.610Z,99689.45
2023-03-24T07:39:18.730Z,99691.17
2023-03-24T07:41:47.343Z,99689.31
2023-03-24T07:44:29.782Z,99683.84
2023-03-24T07:47:01.743Z,99684.53
2023-03-24T07:49:29.727Z,99681.51
2023-03-24T07:52:09.712Z,99676.31
2023-03-24T07:54:46.781Z,99677.09
2023-03-24T07:57:37.400Z,99686.95
2023-03-24T08:00:18.053Z,99689.25
2023-03-24T08:02:53.792Z,99688.73
2023-03-24T08:05:29.708Z,99682.36
2023-03-24T08:08:16.671Z,99684.00
2023-03-24T08:10:46.556Z,99684.89
2023-03-24T08:13:14.732Z,99680.98
2023-03-24T08:15:42.652Z,99673.30
2023-03-24T08:18:10.641Z,99669.55
2023-03-24T08:20:38.455Z,99664.45
2023-03-24T08:23:07.322Z,99660.58
2023-03-24T08:25:36.514Z,99657.77
2023-03-24T08:28:06.161Z,99654.92
2023-03-24T08:30:34.235Z,99653.96
2023-03-24T08:33:03.684Z,99652.80
2023-03-24T08:35:34.528Z,99648.63
2023-03-24T08:38:06.058Z,99648.17
2023-03-24T08:40:36.194Z,99642.36
2023-03-24T08:43:08.720Z,99640.66
2023-03-24T08:45:37.322Z,99640.17
2023-03-24T08:48:07.362Z,99635.59
2023-03-24T08:50:39.989Z,99630.41
2023-03-24T08:53:09.591Z,99621.52
2023-03-24T08:55:41.817Z,99612.17
2023-03-24T08:58:15.351Z,99610.09
2023-03-24T09:00:45.037Z,99615.19
2023-03-24T09:03:18.503Z,99616.92
2023-03-24T09:05:47.922Z,99614.48
2023-03-24T09:08:18.356Z,99615.41
2023-03-24T09:10:49.806Z,99614.23
2023-03-24T09:13:20.076Z,99610.45
2023-03-24T09:15:53.723Z,99604.45
2023-03-24T09:18:22.400Z,99603.31
2023-03-24T09:20:51.230Z,99603.88
2023-03-24T09:23:20.450Z,99606.09
2023-03-24T09:25:51.251Z,99601.73
2023-03-24T09:28:19.705Z,99591.29
2023-03-24T09:30:47.919Z,99587.35
2023-03-24T09:33:16.328Z,99582.54
2023-03-24T09:35:44.346Z,99583.43
2023-03-24T09:38:12.498Z,99579.83
2023-03-24T09:40:43.671Z,99574.42
2023-03-24T09:43:31.862Z,99570.86
2023-03-24T09:46:04.037Z,99568.34
2023-03-24T09:48:55.114Z,99572.69
2023-03-24T09:51:28.684Z,99567.69
2023-03-24T09:54:17.164Z,99567.38
2023-03-24T09:56:48.035Z,99566.80
2023-03-24T09:59:29.828Z,99564.16
2023-03-24T10:01:58.278Z,99565.63
2023-03-24T10:04:28.889Z,99561.85
2023-03-24T10:07:16.444Z,99558.58
2023-03-24T10:09:48.992Z,99557.27
2023-03-24T10:12:45.503Z,99563.07
2023-03-24T10:15:37.401Z,99561.27
2023-03-24T10:18:06.460Z,99561.81
2023-03-24T10:20:47.306Z,99558.47
2023-03-24T10:23:30.438Z,99557.27
2023-03-24T10:26:23.188Z,99559.21
2023-03-24T10:29:04.896Z,99553.72
2023-03-24T10:31:35.095Z,99553.92
2023-03-24T10:34:03.386Z,99546.97
2023-03-24T10:36:32.400Z,99546.02
2023-03-24T10:39:09.584Z,99546.98
2023-03-24T10:41:46.841Z,99543.70
2023-03-24T10:44:15.096Z,99540.02
2023-03-24T10:46:47.183Z,99538.79
2023-03-24T10:49:20.666Z,99539.61
2023-03-24T10:51:51.922Z,99536.41
2023-03-24T10:54:24.039Z,99535.54
2023-03-24T10:56:57.952Z,99536.52
2023-03-24T10:59:32.224Z,99536.91
2023-03-24T11:02:16.325Z,99538.48
2023-03-24T11:04:54.892Z,99536.96
2023-03-24T11:07:35.410Z,99541.37
2023-03-24T11:10:09.224Z,99543.67
2023-03-24T11:12:40.166Z,99542.17
2023-03-24T11:15:29.457Z,99541.60
2023-03-24T11:18:16.691Z,99542.10
2023-03-24T11:20:47.608Z,99537.13
2023-03-24T11:23:20.163Z,99533.80
2023-03-24T11:26:02.675Z,99539.23
2023-03-24T11:28:37.955Z,99532.45
2023-03-24T11:31:09.104Z,99527.50
2023-03-24T11:33:47.391Z,99523.23
2023-03-24T11:36:30.979Z,99527.65
2023-03-24T11:39:04.754Z,99523.34
2023-03-24T11:41:42.021Z,99519.41
2023-03-24T11:44:19.031Z,99517.77
2023-03-24T11:46:59.703Z,99514.46
2023-03-24T11:49:36.165Z,99508.76
2023-03-24T11:52:09.672Z,99507.02
2023-03-24T11:54:37.842Z,99501.57
2023-03-24T11:57:13.787Z,99493.64
2023-03-24T11:59:58.305Z,99493.75
2023-03-24T12:02:57.455Z,99490.77
2023-03-24T12:05:37.682Z,99490.27
2023-03-24T12:08:09.041Z,99490.10
2023-03-24T12:11:04.866Z,99488.62
2023-03-24T12:13:39.340Z,99484.27
2023-03-24T12:16:20.001Z,99480.95
2023-03-24T12:19:07.213Z,99472.77
2023-03-24T12:21:52.998Z,99476.16
2023-03-24T12:24:39.936Z,99473.61
2023-03-24T12:27:22.112Z,99477.89
2023-03-24T12:30:02.720Z,99482.98
2023-03-24T12:32:58.879Z,99480.64
2023-03-24T12:36:01.595Z,99483.96
2023-03-24T12:38:58.392Z,99479.29
2023-03-24T12:41:49.612Z,99480.32
2023-03-24T12:44:39.292Z,99482.80
2023-03-24T12:47:44.888Z,99479.05
2023-03-24T12:50:17.876Z,99480.30
2023-03-24T12:53:12.118Z,99484.45
2023-03-24T12:55:48.635Z,99476.40
2023-03-24T12:58:23.986Z,99477.34
2023-03-24T13:01:13.316Z,99480.20
2023-03-24T13:03:48.725Z,99485.13
2023-03-24T13:06:24.019Z,99480.31
2023-03-24T13:09:30.113Z,99480.14
2023-03-24T13:12:02.916Z,99477.77
2023-03-24T13:14:42.140Z,99477.63
2023-03-24T13:17:18.007Z,99473.99
2023-03-24T13:19:46.932Z,99484.20
2023-03-24T13:22:18.324Z,99478.21
2023-03-24T13:24:47.965Z,99476.54
2023-03-24T13:27:28.746Z,99476.45
2023-03-24T13:30:20.911Z,99467.48
2023-03-24T13:32:56.791Z,99464.84
2023-03-24T13:35:27.342Z,99468.59
2023-03-24T13:38:19.446Z,99466.70
2023-03-24T13:40:53.618Z,99461.51
2023-03-24T13:43:29.226Z,99458.11
2023-03-24T13:46:03.536Z,99461.16
2023-03-24T13:48:41.870Z,99465.18
2023-03-24T13:51:33.052Z,99461.14
2023-03-24T13:54:18.312Z,99457.64
2023-03-24T13:57:01.695Z,99456.46
2023-03-24T14:00:15.839Z,99460.14
2023-03-24T14:02:50.064Z,99458.26
2023-03-24T14:05:54.916Z,99455.11
2023-03-24T14:08:53.940Z,99455.80
2023-03-24T14:11:57.210Z,99451.16
2023-03-24T14:14:27.534Z,99448.36
2023-03-24T14:17:13.777Z,99446.39
2023-03-24T14:20:08.797Z,99445.92
2023-03-24T14:22:48.475Z,99445.23
2023-03-24T14:25:16.321Z,99447.71
2023-03-24T14:27:46.802Z,99447.27
2023-03-24T14:30:30.968Z,99447.74
2023-03-24T14:33:02.275Z,99440.11
2023-03-24T14:35:43.861Z,99442.49
2023-03-24T14:38:14.578Z,99440.98
2023-03-24T14:40:46.349Z,99447.08
2023-03-24T14:43:23.218Z,99449.66
2023-03-24T14:45:56.830Z,99442.03
2023-03-24T14:48:36.121Z,99437.69
2023-03-24T14:51:27.396Z,99430.59
2023-03-24T14:53:59.563Z,99428.36
2023-03-24T14:56:34.844Z,99431.02
2023-03-24T14:59:09.452Z,99432.58
2023-03-24T15:01:38.518Z,99427.41
2023-03-24T15:04:08.513Z,99431.96
2023-03-24T15:06:47.550Z,99430.18
2023-03-24T15:09:17.666Z,99429.78
2023-03-24T15:11:48.504Z,99430.42
2023-03-24T15:14:26.301Z,99426.11
2023-03-24T15:17:06.583Z,99424.63
2023-03-24T15:19:35.622Z,99418.58
2023-03-24T15:22:11.764Z,99419.04
2023-03-24T15:24:43.443Z,99418.70
2023-03-24T15:27:26.717Z,99437.23
2023-03-24T15:30:00.177Z,99482.36
2023-03-24T15:32:32.371Z,99495.94
2023-03-24T15:35:05.731Z,99479.21
2023-03-24T15:37:41.695Z,99471.69
2023-03-24T15:40:29.762Z,99478.20
2023-03-24T15:43:00.332Z,99487.48
2023-03-24T15:45:31.894Z,99486.17
2023-03-24T15:48:16.766Z,99472.77
2023-03-24T15:51:09.382Z,99458.50
2023-03-24T15:53:44.634Z,99458.55
2023-03-24T15:56:20.258Z,99458.03
2023-03-24T15:58:54.779Z,99468.21
2023-03-24T16:01:31.702Z,99474.46
2023-03-24T16:04:02.134Z,99481.12
2023-03-24T16:06:35.455Z,99486.52
2023-03-24T16:09:13.770Z,99485.63
2023-03-24T16:11:42.729Z,99493.23
2023-03-24T16:14:32.561Z,99494.08
2023-03-24T16:17:03.755Z,99488.04
2023-03-24T16:19:31.676Z,99482.23
2023-03-24T16:21:59.964Z,99488.35
2023-03-24T16:24:27.860Z,99488.06
2023-03-24T16:26:55.817Z,99484.80
2023-03-24T16:29:24.132Z,99490.61
2023-03-24T16:31:55.396Z,99500.19
2023-03-24T16:34:23.944Z,99506.49
2023-03-24T16:36:54.448Z,99500.61
2023-03-24T16:39:25.679Z,99506.91
2023-03-24T16:41:54.368Z,99509.48
2023-03-24T16:44:23.258Z,99516.27
2023-03-24T16:46:53.885Z,99523.54
2023-03-24T16:49:23.993Z,99529.46
2023-03-24T16:51:56.186Z,99529.66
2023-03-24T16:54:24.034Z,99536.71
2023-03-24T16:56:52.020Z,99548.06
2023-03-24T16:59:20.832Z,99557.03
2023-03-24T17:01:52.302Z,99560.79
2023-03-24T17:04:24.758Z,99567.46
2023-03-24T17:06:54.440Z,99571.61
2023-03-24T17:09:22.945Z,99567.66
2023-03-24T17:11:56.361Z,99574.56
2023-03-24T17:14:24.682Z,99564.98
2023-03-24T17:16:53.770Z,99568.55
2023-03-24T17:19:23.641Z,99584.81
2023-03-24T17:22:05.911Z,99607.33
2023-03-24T17:24:36.056Z,99610.53
2023-03-24T17:27:10.376Z,99612.75
2023-03-24T17:29:38.284Z,99614.92
2023-03-24T17:32:06.145Z,99604.45
2023-03-24T17:34:34.097Z,99596.70
2023-03-24T17:37:01.994Z,99588.30
2023-03-24T17:39:30.242Z,99578.73
2023-03-24T17:42:01.320Z,99580.11
2023-03-24T17:44:29.231Z,99574.96
2023-03-24T17:46:57.169Z,99566.28
2023-03-24T17:49:25.058Z,99549.52
2023-03-24T17:51:52.903Z,99554.59
2023-03-24T17:54:21.316Z,99549.59
2023-03-24T17:56:49.299Z,99538.20
2023-03-24T17:59:17.740Z,99537.12
2023-03-24T18:01:47.270Z,99541.59
2023-03-24T18:04:15.425Z,99555.61
2023-03-24T18:06:44.256Z,99548.95
2023-03-24T18:09:12.051Z,99552.23
2023-03-24T18:11:39.841Z,99548.38
2023-03-24T18:14:09.295Z,99553.60
2023-03-24T18:16:39.374Z,99567.61
2023-03-24T18:19:07.661Z,99570.34
2023-03-24T18:21:35.876Z,99574.96
2023-03-24T18:24:04.633Z,99573.87
2023-03-24T18:26:33.648Z,99583.35
2023-03-24T18:29:01.552Z,99604.18
2023-03-24T18:31:32.501Z,99618.00
2023-03-24T18:34:00.643Z,99632.17
2023-03-24T18:36:29.211Z,99631.73
2023-03-24T18:39:07.007Z,99632.06
2023-03-24T18:41:37.452Z,99634.11
2023-03-24T18:44:08.697Z,99634.52
2023-03-24T18:46:37.034Z,99633.82
2023-03-24T18:49:06.286Z,99644.05
2023-03-24T18:51:35.598Z,99647.06
2023-03-24T18:54:03.626Z,99650.98
2023-03-24T18:56:31.570Z,99647.30
2023-03-24T18:58:59.584Z,99648.09
2023-03-24T19:01:27.387Z,99650.41
2023-03-24T19:03:55.527Z,99652.91
2023-03-24T19:06:31.214Z,99654.55
2023-03-24T19:09:00.068Z,99649.48
2023-03-24T19:11:28.232Z,99650.48
2023-03-24T19:13:57.045Z,99654.16
2023-03-24T19:16:25.063Z,99659.46
2023-03-24T19:18:53.132Z,99655.72
2023-03-24T19:21:23.245Z,99665.17
2023-03-24T19:23:52.560Z,99664.52
2023-03-24T19:26:21.209Z,99657.19
2023-03-24T19:28:49.331Z,99652.51
2023-03-24T19:31:19.975Z,99647.34
2023-03-24T19:33:48.060Z,99643.88
2023-03-24T19:36:15.980Z,99647.33
2023-03-24T19:38:44.398Z,99651.86
2023-03-24T19:41:14.370Z,99665.27
2023-03-24T19:43:43.452Z,99667.44
2023-03-24T19:46:11.317Z,99662.11
2023-03-24T19:48:39.245Z,99666.63
2023-03-24T19:51:07.175Z,99670.08
2023-03-24T19:53:35.142Z,99671.99
2023-03-24T19:56:04.222Z,99674.36
2023-03-24T19:58:32.233Z,99673.36
2023-03-24T20:01:00.142Z,99677.42
2023-03-24T20:03:29.099Z,99679.43
2023-03-24T20:06:03.461Z,99679.48
2023-03-24T20:08:31.347Z,99686.66
2023-03-24T20:10:59.110Z,99684.77
2023-03-24T20:13:27.775Z,99689.00
2023-03-24T20:15:55.909Z,99688.48
2023-03-24T20:18:24.066Z,99688.65
2023-03-24T20:20:55.396Z,99697.98
2023-03-24T20:23:23.163Z,99701.48
2023-03-24T20:25:52.189Z,99701.67
2023-03-24T20:28:20.559Z,99701.98
2023-03-24T20:30:49.079Z,99694.58
2023-03-24T20:33:17.055Z,99683.50
2023-03-24T20:35:44.932Z,99674.10
2023-03-24T20:38:13.573Z,99675.83
2023-03-24T20:40:41.402Z,99677.42
2023-03-24T20:43:09.542Z,99674.80
2023-03-24T20:45:37.465Z,99668.30
2023-03-24T20:48:05.704Z,99673.80
2023-03-24T20:50:33.589Z,99681.95
2023-03-24T20:53:01.438Z,99692.38
2023-03-24T20:55:29.281Z,99682.70
2023-03-24T20:57:57.111Z,99681.86
2023-03-24T21:00:25.056Z,99682.16
2023-03-24T21:02:52.987Z,99682.77
2023-03-24T21:05:21.563Z,99692.33
2023-03-24T21:07:49.369Z,99702.28
2023-03-24T21:10:17.364Z,99704.16
2023-03-24T21:12:53.445Z,99707.27
2023-03-24T21:15:25.209Z,99705.42
2023-03-24T21:17:54.572Z,99707.70
2023-03-24T21:20:26.730Z,99709.84
2023-03-24T21:22:55.615Z,99707.48
2023-03-24T21:25:28.505Z,99700.05
2023-03-24T21:27:57.872Z,99699.17
2023-03-24T21:30:27.580Z,99695.96
2023-03-24T21:32:57.339Z,99697.98
2023-03-24T21:35:25.626Z,99698.36
2023-03-24T21:37:54.035Z,99702.42
2023-03-24T21:40:24.834Z,99699.16
2023-03-24T21:42:54.021Z,99698.64
2023-03-24T21:45:23.584Z,99700.95
2023-03-24T21:47:54.904Z,99709.25
2023-03-24T21:50:23.579Z,99712.69
2023-03-24T21:52:53.668Z,99710.45
2023-03-24T21:55:23.178Z,99707.52
2023-03-24T21:57:51.983Z,99709.23
2023-03-24T22:00:26.285Z,99713.84
2023-03-24T22:02:54.380Z,99721.44
2023-03-24T22:05:24.995Z,99726.47
2023-03-24T22:07:54.095Z,99726.07
2023-03-24T22:10:29.813Z,99727.55
2023-03-24T22:12:57.859Z,99738.99
2023-03-24T22:15:25.930Z,99748.44
2023-03-24T22:17:53.869Z,99737.20
2023-03-24T22:20:22.800Z,99732.70
2023-03-24T22:22:50.685Z,99737.08
2023-03-24T22:25:18.807Z,99749.63
2023-03-24T22:27:50.078Z,99746.69
2023-03-24T22:30:20.214Z,99741.76
2023-03-24T22:32:48.400Z,99739.31
2023-03-24T22:35:16.764Z,99735.95
2023-03-24T22:37:44.941Z,99735.40
2023-03-24T22:40:12.811Z,99731.96
2023-03-24T22:42:41.061Z,99723.94
2023-03-24T22:45:09.374Z,99725.62
2023-03-24T22:47:37.214Z,99720.86
2023-03-24T22:50:06.010Z,99721.55
2023-03-24T22:52:34.052Z,99721.62
2023-03-24T22:55:02.021Z,99719.45
2023-03-24T22:57:29.983Z,99717.09
2023-03-24T23:00:01.846Z,99720.69
2023-03-24T23:02:30.873Z,99720.80
2023-03-24T23:04:59.329Z,99719.89
2023-03-24T23:07:28.313Z,99722.34
2023-03-24T23:09:59.568Z,99728.74
2023-03-24T23:12:27.757Z,99726.83
2023-03-24T23:14:56.069Z,99728.36
2023-03-24T23:17:24.403Z,99744.52
2023-03-24T23:19:54.020Z,99748.09
2023-03-24T23:22:23.129Z,99748.18
2023-03-24T23:25:02.284Z,99749.40
2023-03-24T23:27:38.013Z,99749.31
2023-03-24T23:30:08.296Z,99747.20
2023-03-24T23:32:37.004Z,99752.09
2023-03-24T23:35:08.157Z,99755.77
2023-03-24T23:37:37.150Z,99752.49
2023-03-24T23:40:13.079Z,99745.08
2023-03-24T23:42:46.533Z,99741.27
2023-03-24T23:45:18.351Z,99746.46
2023-03-24T23:47:49.590Z,99736.25
2023-03-24T23:50:19.875Z,99730.55
2023-03-24T23:52:48.097Z,99732.98
2023-03-24T23:55:18.200Z,99730.94
2023-03-24T23:57:49.324Z,99735.85
